createdAt,value
2017-08-14T00:06:19.316Z,63.9
2017-08-14T00:17:31.536Z,64.2
2017-08-14T00:28:18.379Z,63.5
2017-08-14T00:39:19.077Z,64.7
2017-08-14T00:50:24.097Z,64.1
2017-08-14T01:01:23.725Z,64.2
2017-08-14T01:12:19.206Z,64.5
2017-08-14T01:23:23.239Z,64.7
2017-08-14T01:34:18.539Z,64.3
2017-08-14T01:45:18.802Z,64.8
2017-08-14T01:56:18.697Z,64.9
2017-08-14T02:07:23.620Z,65.2
2017-08-14T02:18:24.098Z,65
2017-08-14T02:29:24.378Z,65.2
2017-08-14T02:40:24.049Z,65.2
2017-08-14T02:51:18.823Z,64.3
2017-08-14T03:02:18.614Z,64.8
2017-08-14T03:13:18.762Z,64.3
2017-08-14T03:24:24.405Z,64.2
2017-08-14T03:35:18.328Z,64.7
2017-08-14T03:46:23.629Z,64.3
2017-08-14T03:57:19.182Z,64.3
2017-08-14T04:08:18.622Z,63.7
2017-08-14T04:19:19.541Z,64
2017-08-14T04:30:19.289Z,63.7
2017-08-14T04:41:18.647Z,63.6
2017-08-14T04:52:18.757Z,63.2
2017-08-14T05:03:18.895Z,60.2
2017-08-14T05:14:20.125Z,58.8
2017-08-14T05:25:18.703Z,58.5
2017-08-14T05:36:18.615Z,58.2
2017-08-14T05:47:19.046Z,57.8
2017-08-14T05:58:18.401Z,59.5
2017-08-14T06:09:19.118Z,59.7
2017-08-14T06:20:18.699Z,60.4
2017-08-14T06:31:18.704Z,61
2017-08-14T06:42:18.683Z,60.8
2017-08-14T06:53:18.731Z,61.8
2017-08-14T07:04:23.606Z,61.6
2017-08-14T07:15:19.345Z,62.2
2017-08-14T07:26:18.984Z,62.6
2017-08-14T07:37:19.276Z,63.2
2017-08-14T07:48:18.431Z,62.9
2017-08-14T07:59:19.071Z,63.2
2017-08-14T08:10:18.757Z,63.7
2017-08-14T08:21:19.218Z,64
2017-08-14T08:32:18.538Z,64.5
2017-08-14T08:43:19.199Z,64.2
2017-08-14T08:54:18.554Z,64.5
2017-08-14T09:05:19.307Z,64.4
2017-08-14T09:16:19.101Z,64.4
2017-08-14T09:27:18.303Z,64.4
2017-08-14T09:38:18.232Z,64.7
2017-08-14T09:49:18.907Z,64.8
2017-08-14T10:00:18.440Z,65.1
2017-08-14T10:11:24.212Z,65.4
2017-08-14T10:22:18.515Z,65.3
2017-08-14T10:33:19.122Z,65.8
2017-08-14T10:44:18.628Z,65.4
2017-08-14T10:55:24.236Z,65.5
2017-08-14T11:06:19.561Z,65.8
2017-08-14T11:17:25.471Z,62.4
2017-08-14T11:28:18.736Z,60.8
2017-08-14T11:39:19.483Z,60.2
2017-08-14T11:50:24.334Z,59.5
2017-08-14T12:01:19.179Z,58.5
2017-08-14T12:12:18.964Z,60
2017-08-14T12:23:19.167Z,60.9
2017-08-14T12:34:18.477Z,61
2017-08-14T12:45:18.685Z,61.5
2017-08-14T12:56:18.858Z,61.1
2017-08-14T13:07:30.419Z,61.8
2017-08-14T13:18:19.312Z,62.3
2017-08-14T13:29:18.890Z,62.5
2017-08-14T13:40:19.354Z,62.4
2017-08-14T13:51:24.418Z,63.6
2017-08-14T14:02:23.603Z,62.6
2017-08-14T14:13:19.463Z,63.5
2017-08-14T14:24:18.578Z,63.2
2017-08-14T14:35:19.164Z,63.4
2017-08-14T14:46:19.161Z,63.7
2017-08-14T14:57:19.738Z,63.8
2017-08-14T15:08:18.624Z,63.8
2017-08-14T15:19:18.654Z,63.2
2017-08-14T15:30:18.676Z,62.9
2017-08-14T15:41:24.018Z,63
2017-08-14T15:52:18.531Z,63.7
2017-08-14T16:03:18.968Z,63.4
2017-08-14T16:14:18.618Z,62.7
2017-08-14T16:25:18.959Z,63
2017-08-14T16:36:24.283Z,59.4
2017-08-14T16:47:18.474Z,58.7
2017-08-14T16:58:18.680Z,58
2017-08-14T17:09:18.369Z,57.5
2017-08-14T17:20:19.337Z,55.7
2017-08-14T17:31:18.860Z,56.6
2017-08-14T17:42:19.101Z,57.6
2017-08-14T17:53:19.324Z,56.9
2017-08-14T18:04:19.081Z,56.1
2017-08-14T18:15:18.310Z,56.2
2017-08-14T18:26:18.332Z,56
2017-08-14T18:37:18.881Z,55.8
2017-08-14T18:48:18.624Z,56.1
2017-08-14T18:59:18.583Z,56.2
2017-08-14T19:10:19.039Z,56.4
2017-08-14T19:21:18.205Z,56.3
2017-08-14T19:32:19.078Z,56.5
2017-08-14T19:43:18.255Z,56.3
2017-08-14T19:54:19.238Z,56
2017-08-14T20:05:18.729Z,56.2
2017-08-14T20:16:18.767Z,56.2
2017-08-14T20:27:19.175Z,55.7
2017-08-14T20:38:19.953Z,55.8
2017-08-14T20:49:19.064Z,55.2
2017-08-14T21:00:18.553Z,55.6
2017-08-14T21:11:18.841Z,55.5
2017-08-14T21:22:18.944Z,55.5
2017-08-14T21:33:18.860Z,55.9
2017-08-14T21:44:19.582Z,55.1
2017-08-14T21:55:19.644Z,55
2017-08-14T22:06:18.935Z,55.2
2017-08-14T22:17:24.476Z,54.6
2017-08-14T22:28:19.735Z,55
2017-08-14T22:39:18.691Z,55.4
2017-08-14T22:50:19.707Z,55.5
2017-08-14T23:01:33.008Z,56.4
2017-08-14T23:12:19.080Z,55.9
2017-08-14T23:23:18.647Z,56
2017-08-14T23:34:18.762Z,55.9
2017-08-14T23:45:18.542Z,55.6
2017-08-14T23:56:18.608Z,55
